sensor_id;sensor_type;location;lat;lon;timestamp;P1;durP1;ratioP1;P2;durP2;ratioP2
10823;SDS011;39116;59.332;18.034;2022-10-04T00:01:43;2.38;;;2.03;;
10823;SDS011;39116;59.332;18.034;2022-10-04T00:04:10;2.50;;;2.00;;
10823;SDS011;39116;59.332;18.034;2022-10-04T00:06:40;6.95;;;2.20;;
10823;SDS011;39116;59.332;18.034;2022-10-04T00:09:11;2.60;;;1.85;;
10823;SDS011;39116;59.332;18.034;2022-10-04T00:11:41;3.30;;;2.00;;
10823;SDS011;39116;59.332;18.034;2022-10-04T00:14:12;3.33;;;1.80;;
10823;SDS011;39116;59.332;18.034;2022-10-04T00:16:41;4.07;;;2.30;;
10823;SDS011;39116;59.332;18.034;2022-10-04T00:19:24;3.97;;;2.10;;
10823;SDS011;39116;59.332;18.034;2022-10-04T00:22:10;6.78;;;2.42;;
10823;SDS011;39116;59.332;18.034;2022-10-04T00:24:38;3.30;;;1.77;;
10823;SDS011;39116;59.332;18.034;2022-10-04T00:27:24;4.22;;;1.83;;
10823;SDS011;39116;59.332;18.034;2022-10-04T00:32:41;3.33;;;1.80;;
10823;SDS011;39116;59.332;18.034;2022-10-04T00:37:54;3.58;;;1.75;;
10823;SDS011;39116;59.332;18.034;2022-10-04T00:40:22;3.20;;;1.67;;
10823;SDS011;39116;59.332;18.034;2022-10-04T00:42:54;5.72;;;2.10;;
10823;SDS011;39116;59.332;18.034;2022-10-04T00:45:27;6.57;;;2.28;;
10823;SDS011;39116;59.332;18.034;2022-10-04T00:50:37;2.83;;;1.77;;
10823;SDS011;39116;59.332;18.034;2022-10-04T00:53:11;3.95;;;1.80;;
10823;SDS011;39116;59.332;18.034;2022-10-04T00:55:38;2.30;;;1.80;;
10823;SDS011;39116;59.332;18.034;2022-10-04T00:58:11;4.32;;;1.88;;
10823;SDS011;39116;59.332;18.034;2022-10-04T01:00:39;3.85;;;1.90;;
10823;SDS011;39116;59.332;18.034;2022-10-04T01:03:09;2.92;;;1.98;;
10823;SDS011;39116;59.332;18.034;2022-10-04T01:05:37;2.30;;;1.73;;
10823;SDS011;39116;59.332;18.034;2022-10-04T01:08:07;3.92;;;1.90;;
10823;SDS011;39116;59.332;18.034;2022-10-04T01:10:37;2.58;;;1.88;;
10823;SDS011;39116;59.332;18.034;2022-10-04T01:13:06;3.42;;;1.77;;
10823;SDS011;39116;59.332;18.034;2022-10-04T01:15:35;2.70;;;1.90;;
10823;SDS011;39116;59.332;18.034;2022-10-04T01:18:09;2.15;;;1.80;;
10823;SDS011;39116;59.332;18.034;2022-10-04T01:20:38;3.00;;;1.92;;
10823;SDS011;39116;59.332;18.034;2022-10-04T01:23:06;3.00;;;1.88;;
10823;SDS011;39116;59.332;18.034;2022-10-04T01:25:47;3.40;;;1.70;;
10823;SDS011;39116;59.332;18.034;2022-10-04T01:28:14;3.08;;;1.52;;
10823;SDS011;39116;59.332;18.034;2022-10-04T01:30:41;4.03;;;1.67;;
10823;SDS011;39116;59.332;18.034;2022-10-04T01:33:07;2.85;;;1.60;;
10823;SDS011;39116;59.332;18.034;2022-10-04T01:35:34;3.90;;;2.00;;
10823;SDS011;39116;59.332;18.034;2022-10-04T01:38:01;3.40;;;2.08;;
10823;SDS011;39116;59.332;18.034;2022-10-04T01:40:32;5.38;;;1.75;;
10823;SDS011;39116;59.332;18.034;2022-10-04T01:43:00;3.05;;;1.80;;
10823;SDS011;39116;59.332;18.034;2022-10-04T01:45:28;3.63;;;1.55;;
10823;SDS011;39116;59.332;18.034;2022-10-04T01:47:57;2.28;;;1.67;;
10823;SDS011;39116;59.332;18.034;2022-10-04T01:50:26;3.25;;;1.65;;
10823;SDS011;39116;59.332;18.034;2022-10-04T01:52:55;4.78;;;1.70;;
10823;SDS011;39116;59.332;18.034;2022-10-04T01:55:26;3.70;;;1.70;;
10823;SDS011;39116;59.332;18.034;2022-10-04T01:57:56;4.18;;;1.45;;
10823;SDS011;39116;59.332;18.034;2022-10-04T02:00:25;5.95;;;1.80;;
10823;SDS011;39116;59.332;18.034;2022-10-04T02:02:52;2.90;;;1.50;;
10823;SDS011;39116;59.332;18.034;2022-10-04T02:05:23;3.30;;;1.48;;
10823;SDS011;39116;59.332;18.034;2022-10-04T02:07:51;3.53;;;1.70;;
10823;SDS011;39116;59.332;18.034;2022-10-04T02:10:19;4.57;;;1.55;;
10823;SDS011;39116;59.332;18.034;2022-10-04T02:12:47;1.55;;;1.40;;
10823;SDS011;39116;59.332;18.034;2022-10-04T02:15:16;3.13;;;1.58;;
10823;SDS011;39116;59.332;18.034;2022-10-04T02:17:44;3.63;;;1.55;;
10823;SDS011;39116;59.332;18.034;2022-10-04T02:20:13;3.92;;;1.77;;
10823;SDS011;39116;59.332;18.034;2022-10-04T02:22:40;4.13;;;1.67;;
10823;SDS011;39116;59.332;18.034;2022-10-04T02:25:08;4.88;;;1.73;;
10823;SDS011;39116;59.332;18.034;2022-10-04T02:27:35;3.78;;;1.52;;
10823;SDS011;39116;59.332;18.034;2022-10-04T02:30:02;3.47;;;1.40;;
10823;SDS011;39116;59.332;18.034;2022-10-04T02:32:31;5.15;;;1.80;;
10823;SDS011;39116;59.332;18.034;2022-10-04T02:35:15;4.68;;;1.77;;
10823;SDS011;39116;59.332;18.034;2022-10-04T02:37:43;3.70;;;1.50;;
10823;SDS011;39116;59.332;18.034;2022-10-04T02:40:11;5.10;;;1.60;;
10823;SDS011;39116;59.332;18.034;2022-10-04T02:42:39;2.83;;;1.70;;
10823;SDS011;39116;59.332;18.034;2022-10-04T02:45:10;1.70;;;1.50;;
10823;SDS011;39116;59.332;18.034;2022-10-04T02:47:41;2.67;;;1.58;;
10823;SDS011;39116;59.332;18.034;2022-10-04T02:50:12;2.08;;;1.30;;
10823;SDS011;39116;59.332;18.034;2022-10-04T02:52:44;3.08;;;1.50;;
10823;SDS011;39116;59.332;18.034;2022-10-04T02:55:12;5.07;;;1.85;;
10823;SDS011;39116;59.332;18.034;2022-10-04T02:57:42;3.88;;;1.30;;
10823;SDS011;39116;59.332;18.034;2022-10-04T03:00:12;3.00;;;1.45;;
10823;SDS011;39116;59.332;18.034;2022-10-04T03:02:41;3.83;;;1.60;;
10823;SDS011;39116;59.332;18.034;2022-10-04T03:05:08;2.15;;;1.40;;
10823;SDS011;39116;59.332;18.034;2022-10-04T03:07:36;2.10;;;1.30;;
10823;SDS011;39116;59.332;18.034;2022-10-04T03:10:04;4.18;;;1.40;;
10823;SDS011;39116;59.332;18.034;2022-10-04T03:12:32;2.90;;;1.25;;
10823;SDS011;39116;59.332;18.034;2022-10-04T03:14:58;4.35;;;1.50;;
10823;SDS011;39116;59.332;18.034;2022-10-04T03:17:25;5.47;;;1.63;;
10823;SDS011;39116;59.332;18.034;2022-10-04T03:19:55;4.68;;;1.42;;
10823;SDS011;39116;59.332;18.034;2022-10-04T03:22:22;4.88;;;1.50;;
10823;SDS011;39116;59.332;18.034;2022-10-04T03:24:49;2.47;;;1.52;;
10823;SDS011;39116;59.332;18.034;2022-10-04T03:27:18;2.75;;;1.60;;
10823;SDS011;39116;59.332;18.034;2022-10-04T03:29:46;2.67;;;1.25;;
10823;SDS011;39116;59.332;18.034;2022-10-04T03:32:14;3.25;;;1.40;;
10823;SDS011;39116;59.332;18.034;2022-10-04T03:34:43;2.35;;;1.40;;
10823;SDS011;39116;59.332;18.034;2022-10-04T03:37:17;7.18;;;1.52;;
10823;SDS011;39116;59.332;18.034;2022-10-04T03:39:46;2.63;;;1.50;;
10823;SDS011;39116;59.332;18.034;2022-10-04T03:42:14;2.95;;;1.50;;
10823;SDS011;39116;59.332;18.034;2022-10-04T03:44:41;4.55;;;1.60;;
10823;SDS011;39116;59.332;18.034;2022-10-04T03:47:09;6.22;;;1.60;;
10823;SDS011;39116;59.332;18.034;2022-10-04T03:49:36;2.55;;;1.30;;
10823;SDS011;39116;59.332;18.034;2022-10-04T03:52:03;4.22;;;1.25;;
10823;SDS011;39116;59.332;18.034;2022-10-04T03:54:32;4.07;;;1.85;;
10823;SDS011;39116;59.332;18.034;2022-10-04T03:56:59;7.22;;;1.50;;
10823;SDS011;39116;59.332;18.034;2022-10-04T03:59:26;4.35;;;1.40;;
10823;SDS011;39116;59.332;18.034;2022-10-04T04:01:58;4.05;;;1.50;;
10823;SDS011;39116;59.332;18.034;2022-10-04T04:04:29;5.00;;;1.40;;
10823;SDS011;39116;59.332;18.034;2022-10-04T04:07:00;2.55;;;1.50;;
10823;SDS011;39116;59.332;18.034;2022-10-04T04:09:31;4.25;;;1.40;;
10823;SDS011;39116;59.332;18.034;2022-10-04T04:12:02;1.98;;;1.45;;
10823;SDS011;39116;59.332;18.034;2022-10-04T04:14:31;3.58;;;1.50;;
10823;SDS011;39116;59.332;18.034;2022-10-04T04:17:16;5.63;;;1.63;;
10823;SDS011;39116;59.332;18.034;2022-10-04T04:19:43;12.50;;;2.05;;
10823;SDS011;39116;59.332;18.034;2022-10-04T04:22:10;4.13;;;1.58;;
10823;SDS011;39116;59.332;18.034;2022-10-04T04:24:40;3.15;;;1.50;;
10823;SDS011;39116;59.332;18.034;2022-10-04T04:27:08;4.57;;;1.50;;
10823;SDS011;39116;59.332;18.034;2022-10-04T04:29:38;8.93;;;1.55;;
10823;SDS011;39116;59.332;18.034;2022-10-04T04:32:11;3.85;;;1.40;;
10823;SDS011;39116;59.332;18.034;2022-10-04T04:34:43;5.70;;;1.60;;
10823;SDS011;39116;59.332;18.034;2022-10-04T04:37:13;5.47;;;1.25;;
10823;SDS011;39116;59.332;18.034;2022-10-04T04:39:40;3.97;;;1.45;;
10823;SDS011;39116;59.332;18.034;2022-10-04T04:42:12;5.53;;;1.42;;
10823;SDS011;39116;59.332;18.034;2022-10-04T04:44:45;5.25;;;1.60;;
10823;SDS011;39116;59.332;18.034;2022-10-04T04:47:16;3.05;;;1.45;;
10823;SDS011;39116;59.332;18.034;2022-10-04T04:49:45;8.18;;;1.65;;
10823;SDS011;39116;59.332;18.034;2022-10-04T04:52:12;7.68;;;1.67;;
10823;SDS011;39116;59.332;18.034;2022-10-04T04:54:40;2.90;;;1.58;;
10823;SDS011;39116;59.332;18.034;2022-10-04T04:57:08;5.45;;;1.45;;
10823;SDS011;39116;59.332;18.034;2022-10-04T04:59:36;5.25;;;1.48;;
10823;SDS011;39116;59.332;18.034;2022-10-04T05:02:02;5.68;;;1.52;;
10823;SDS011;39116;59.332;18.034;2022-10-04T05:04:29;5.28;;;1.77;;
10823;SDS011;39116;59.332;18.034;2022-10-04T05:06:59;7.50;;;1.60;;
10823;SDS011;39116;59.332;18.034;2022-10-04T05:09:27;5.28;;;1.45;;
10823;SDS011;39116;59.332;18.034;2022-10-04T05:11:55;6.82;;;1.50;;
10823;SDS011;39116;59.332;18.034;2022-10-04T05:14:22;3.50;;;1.67;;
10823;SDS011;39116;59.332;18.034;2022-10-04T05:16:51;8.43;;;1.50;;
10823;SDS011;39116;59.332;18.034;2022-10-04T05:19:18;5.45;;;1.42;;
10823;SDS011;39116;59.332;18.034;2022-10-04T05:21:46;8.00;;;1.73;;
10823;SDS011;39116;59.332;18.034;2022-10-04T05:24:17;5.82;;;1.85;;
10823;SDS011;39116;59.332;18.034;2022-10-04T05:26:45;3.58;;;1.30;;
10823;SDS011;39116;59.332;18.034;2022-10-04T05:29:15;2.92;;;1.38;;
10823;SDS011;39116;59.332;18.034;2022-10-04T05:31:44;4.63;;;1.27;;
10823;SDS011;39116;59.332;18.034;2022-10-04T05:34:16;5.40;;;1.60;;
10823;SDS011;39116;59.332;18.034;2022-10-04T05:36:46;6.47;;;1.90;;
10823;SDS011;39116;59.332;18.034;2022-10-04T05:39:18;4.97;;;1.48;;
10823;SDS011;39116;59.332;18.034;2022-10-04T05:41:48;10.43;;;1.88;;
10823;SDS011;39116;59.332;18.034;2022-10-04T05:44:18;6.53;;;1.70;;
10823;SDS011;39116;59.332;18.034;2022-10-04T05:46:45;3.00;;;1.45;;
10823;SDS011;39116;59.332;18.034;2022-10-04T05:49:12;4.40;;;1.67;;
10823;SDS011;39116;59.332;18.034;2022-10-04T05:51:48;6.78;;;1.70;;
10823;SDS011;39116;59.332;18.034;2022-10-04T05:54:17;4.72;;;1.50;;
10823;SDS011;39116;59.332;18.034;2022-10-04T05:56:52;6.25;;;1.90;;
10823;SDS011;39116;59.332;18.034;2022-10-04T05:59:31;4.75;;;2.00;;
10823;SDS011;39116;59.332;18.034;2022-10-04T06:02:02;5.53;;;1.80;;
10823;SDS011;39116;59.332;18.034;2022-10-04T06:04:39;3.65;;;1.50;;
10823;SDS011;39116;59.332;18.034;2022-10-04T06:07:11;4.63;;;1.50;;
10823;SDS011;39116;59.332;18.034;2022-10-04T06:09:46;4.65;;;1.90;;
10823;SDS011;39116;59.332;18.034;2022-10-04T06:12:16;7.15;;;1.90;;
10823;SDS011;39116;59.332;18.034;2022-10-04T06:17:37;5.40;;;1.67;;
10823;SDS011;39116;59.332;18.034;2022-10-04T06:20:12;4.18;;;1.50;;
10823;SDS011;39116;59.332;18.034;2022-10-04T06:22:46;7.07;;;1.70;;
10823;SDS011;39116;59.332;18.034;2022-10-04T06:25:15;4.18;;;1.67;;
10823;SDS011;39116;59.332;18.034;2022-10-04T06:27:44;6.28;;;2.10;;
10823;SDS011;39116;59.332;18.034;2022-10-04T06:30:15;4.72;;;1.88;;
10823;SDS011;39116;59.332;18.034;2022-10-04T06:35:46;6.78;;;2.17;;
10823;SDS011;39116;59.332;18.034;2022-10-04T06:41:11;2.95;;;1.73;;
10823;SDS011;39116;59.332;18.034;2022-10-04T06:43:49;7.88;;;2.08;;
10823;SDS011;39116;59.332;18.034;2022-10-04T06:46:21;8.65;;;1.98;;
10823;SDS011;39116;59.332;18.034;2022-10-04T06:51:42;5.88;;;1.80;;
10823;SDS011;39116;59.332;18.034;2022-10-04T06:54:14;6.53;;;1.95;;
10823;SDS011;39116;59.332;18.034;2022-10-04T06:56:49;8.82;;;2.28;;
10823;SDS011;39116;59.332;18.034;2022-10-04T06:59:21;6.47;;;1.92;;
10823;SDS011;39116;59.332;18.034;2022-10-04T07:01:53;8.40;;;1.90;;
10823;SDS011;39116;59.332;18.034;2022-10-04T07:04:27;4.72;;;1.60;;
10823;SDS011;39116;59.332;18.034;2022-10-04T07:07:02;6.05;;;1.95;;
10823;SDS011;39116;59.332;18.034;2022-10-04T07:09:46;4.32;;;1.80;;
10823;SDS011;39116;59.332;18.034;2022-10-04T07:12:14;5.68;;;1.75;;
10823;SDS011;39116;59.332;18.034;2022-10-04T07:14:43;5.47;;;1.63;;
10823;SDS011;39116;59.332;18.034;2022-10-04T07:17:11;5.55;;;1.48;;
10823;SDS011;39116;59.332;18.034;2022-10-04T07:19:38;5.50;;;1.83;;
10823;SDS011;39116;59.332;18.034;2022-10-04T07:22:12;5.68;;;1.77;;
10823;SDS011;39116;59.332;18.034;2022-10-04T07:27:36;3.13;;;1.70;;
10823;SDS011;39116;59.332;18.034;2022-10-04T07:30:12;2.40;;;1.45;;
10823;SDS011;39116;59.332;18.034;2022-10-04T07:32:42;8.73;;;2.17;;
10823;SDS011;39116;59.332;18.034;2022-10-04T07:35:12;5.47;;;1.67;;
10823;SDS011;39116;59.332;18.034;2022-10-04T07:37:45;6.43;;;1.80;;
10823;SDS011;39116;59.332;18.034;2022-10-04T07:40:17;4.28;;;1.65;;
10823;SDS011;39116;59.332;18.034;2022-10-04T07:42:47;6.18;;;1.60;;
10823;SDS011;39116;59.332;18.034;2022-10-04T07:45:19;8.50;;;2.00;;
10823;SDS011;39116;59.332;18.034;2022-10-04T07:47:47;6.88;;;1.60;;
10823;SDS011;39116;59.332;18.034;2022-10-04T07:50:23;3.53;;;1.20;;
10823;SDS011;39116;59.332;18.034;2022-10-04T07:52:51;8.18;;;1.75;;
10823;SDS011;39116;59.332;18.034;2022-10-04T07:55:22;6.00;;;1.88;;
10823;SDS011;39116;59.332;18.034;2022-10-04T07:57:55;5.90;;;1.65;;
10823;SDS011;39116;59.332;18.034;2022-10-04T08:00:23;6.32;;;2.22;;
10823;SDS011;39116;59.332;18.034;2022-10-04T08:03:02;6.50;;;1.80;;
10823;SDS011;39116;59.332;18.034;2022-10-04T08:05:32;4.50;;;1.25;;
10823;SDS011;39116;59.332;18.034;2022-10-04T08:08:12;6.95;;;1.50;;
10823;SDS011;39116;59.332;18.034;2022-10-04T08:10:45;7.63;;;2.00;;
10823;SDS011;39116;59.332;18.034;2022-10-04T08:13:18;4.28;;;1.90;;
10823;SDS011;39116;59.332;18.034;2022-10-04T08:15:47;4.70;;;1.65;;
10823;SDS011;39116;59.332;18.034;2022-10-04T08:18:20;4.13;;;1.75;;
10823;SDS011;39116;59.332;18.034;2022-10-04T08:20:49;9.20;;;2.40;;
10823;SDS011;39116;59.332;18.034;2022-10-04T08:23:23;9.20;;;2.15;;
10823;SDS011;39116;59.332;18.034;2022-10-04T08:25:58;7.95;;;2.20;;
10823;SDS011;39116;59.332;18.034;2022-10-04T08:28:32;7.60;;;1.67;;
10823;SDS011;39116;59.332;18.034;2022-10-04T08:31:22;4.15;;;1.60;;
10823;SDS011;39116;59.332;18.034;2022-10-04T08:33:58;11.13;;;2.10;;
10823;SDS011;39116;59.332;18.034;2022-10-04T08:36:31;9.80;;;4.35;;
10823;SDS011;39116;59.332;18.034;2022-10-04T08:39:01;11.52;;;2.50;;
10823;SDS011;39116;59.332;18.034;2022-10-04T08:44:33;3.22;;;1.50;;
10823;SDS011;39116;59.332;18.034;2022-10-04T08:47:24;2.45;;;1.27;;
10823;SDS011;39116;59.332;18.034;2022-10-04T08:52:54;5.32;;;1.40;;
10823;SDS011;39116;59.332;18.034;2022-10-04T08:58:15;6.75;;;2.00;;
10823;SDS011;39116;59.332;18.034;2022-10-04T09:00:50;7.22;;;1.77;;
10823;SDS011;39116;59.332;18.034;2022-10-04T09:06:12;6.25;;;2.00;;
10823;SDS011;39116;59.332;18.034;2022-10-04T09:08:52;3.22;;;1.40;;
10823;SDS011;39116;59.332;18.034;2022-10-04T09:11:24;4.80;;;1.40;;
10823;SDS011;39116;59.332;18.034;2022-10-04T09:14:07;5.63;;;1.70;;
10823;SDS011;39116;59.332;18.034;2022-10-04T09:16:40;3.08;;;1.25;;
10823;SDS011;39116;59.332;18.034;2022-10-04T09:24:52;2.72;;;1.50;;
10823;SDS011;39116;59.332;18.034;2022-10-04T09:27:27;3.60;;;1.60;;
10823;SDS011;39116;59.332;18.034;2022-10-04T09:30:01;4.78;;;1.50;;
10823;SDS011;39116;59.332;18.034;2022-10-04T09:35:29;7.18;;;1.63;;
10823;SDS011;39116;59.332;18.034;2022-10-04T09:38:15;5.82;;;1.70;;
10823;SDS011;39116;59.332;18.034;2022-10-04T09:40:49;5.20;;;2.08;;
10823;SDS011;39116;59.332;18.034;2022-10-04T09:43:43;5.65;;;2.05;;
10823;SDS011;39116;59.332;18.034;2022-10-04T09:46:18;8.00;;;1.60;;
10823;SDS011;39116;59.332;18.034;2022-10-04T09:48:55;5.82;;;1.35;;
10823;SDS011;39116;59.332;18.034;2022-10-04T09:51:36;3.83;;;1.88;;
10823;SDS011;39116;59.332;18.034;2022-10-04T09:54:14;3.88;;;1.52;;
10823;SDS011;39116;59.332;18.034;2022-10-04T09:56:52;4.68;;;1.50;;
10823;SDS011;39116;59.332;18.034;2022-10-04T09:59:44;7.05;;;2.47;;
10823;SDS011;39116;59.332;18.034;2022-10-04T10:02:40;4.90;;;1.73;;
10823;SDS011;39116;59.332;18.034;2022-10-04T10:05:17;2.85;;;1.27;;
10823;SDS011;39116;59.332;18.034;2022-10-04T10:07:49;5.60;;;1.70;;
10823;SDS011;39116;59.332;18.034;2022-10-04T10:10:19;8.05;;;1.33;;
10823;SDS011;39116;59.332;18.034;2022-10-04T10:13:10;3.28;;;1.02;;
10823;SDS011;39116;59.332;18.034;2022-10-04T10:15:58;3.10;;;1.25;;
10823;SDS011;39116;59.332;18.034;2022-10-04T10:18:30;2.85;;;1.20;;
10823;SDS011;39116;59.332;18.034;2022-10-04T10:21:04;3.15;;;1.38;;
10823;SDS011;39116;59.332;18.034;2022-10-04T10:23:41;4.72;;;1.65;;
10823;SDS011;39116;59.332;18.034;2022-10-04T10:31:57;4.68;;;1.63;;
10823;SDS011;39116;59.332;18.034;2022-10-04T10:34:33;4.80;;;1.40;;
10823;SDS011;39116;59.332;18.034;2022-10-04T10:37:06;2.42;;;1.15;;
10823;SDS011;39116;59.332;18.034;2022-10-04T10:42:27;3.95;;;1.30;;
10823;SDS011;39116;59.332;18.034;2022-10-04T10:45:10;2.92;;;1.17;;
10823;SDS011;39116;59.332;18.034;2022-10-04T10:47:43;2.90;;;1.40;;
10823;SDS011;39116;59.332;18.034;2022-10-04T10:50:15;4.45;;;1.27;;
10823;SDS011;39116;59.332;18.034;2022-10-04T10:52:52;4.72;;;1.25;;
10823;SDS011;39116;59.332;18.034;2022-10-04T10:58:06;3.42;;;1.10;;
10823;SDS011;39116;59.332;18.034;2022-10-04T11:00:40;2.67;;;1.25;;
10823;SDS011;39116;59.332;18.034;2022-10-04T11:03:20;3.03;;;1.10;;
10823;SDS011;39116;59.332;18.034;2022-10-04T11:11:43;2.75;;;0.95;;
10823;SDS011;39116;59.332;18.034;2022-10-04T11:14:20;3.50;;;1.23;;
10823;SDS011;39116;59.332;18.034;2022-10-04T11:17:06;4.35;;;0.98;;
10823;SDS011;39116;59.332;18.034;2022-10-04T11:19:50;1.80;;;1.20;;
10823;SDS011;39116;59.332;18.034;2022-10-04T11:27:51;6.03;;;1.70;;
10823;SDS011;39116;59.332;18.034;2022-10-04T11:30:22;6.43;;;1.23;;
10823;SDS011;39116;59.332;18.034;2022-10-04T11:35:40;2.95;;;1.10;;
10823;SDS011;39116;59.332;18.034;2022-10-04T11:38:12;2.92;;;1.42;;
10823;SDS011;39116;59.332;18.034;2022-10-04T11:40:51;5.68;;;1.33;;
10823;SDS011;39116;59.332;18.034;2022-10-04T11:43:31;6.68;;;1.38;;
10823;SDS011;39116;59.332;18.034;2022-10-04T11:46:09;4.15;;;1.63;;
10823;SDS011;39116;59.332;18.034;2022-10-04T11:48:40;4.90;;;1.25;;
10823;SDS011;39116;59.332;18.034;2022-10-04T11:51:18;4.07;;;1.05;;
10823;SDS011;39116;59.332;18.034;2022-10-04T11:53:54;2.75;;;1.00;;
10823;SDS011;39116;59.332;18.034;2022-10-04T11:56:29;3.67;;;1.50;;
10823;SDS011;39116;59.332;18.034;2022-10-04T11:59:09;7.07;;;1.30;;
10823;SDS011;39116;59.332;18.034;2022-10-04T12:01:52;4.22;;;1.42;;
10823;SDS011;39116;59.332;18.034;2022-10-04T12:04:33;2.88;;;0.93;;
10823;SDS011;39116;59.332;18.034;2022-10-04T12:07:18;5.18;;;1.20;;
10823;SDS011;39116;59.332;18.034;2022-10-04T12:09:49;3.15;;;1.27;;
10823;SDS011;39116;59.332;18.034;2022-10-04T12:12:25;4.35;;;1.42;;
10823;SDS011;39116;59.332;18.034;2022-10-04T12:15:06;2.88;;;1.08;;
10823;SDS011;39116;59.332;18.034;2022-10-04T12:23:13;4.88;;;1.10;;
10823;SDS011;39116;59.332;18.034;2022-10-04T12:25:46;3.35;;;1.20;;
10823;SDS011;39116;59.332;18.034;2022-10-04T12:31:15;3.20;;;1.00;;
10823;SDS011;39116;59.332;18.034;2022-10-04T12:33:47;3.45;;;1.25;;
10823;SDS011;39116;59.332;18.034;2022-10-04T12:36:28;3.25;;;1.10;;
10823;SDS011;39116;59.332;18.034;2022-10-04T12:41:42;2.97;;;1.00;;
10823;SDS011;39116;59.332;18.034;2022-10-04T12:44:17;4.38;;;1.10;;
10823;SDS011;39116;59.332;18.034;2022-10-04T12:46:51;2.92;;;1.23;;
10823;SDS011;39116;59.332;18.034;2022-10-04T12:49:23;4.57;;;1.00;;
10823;SDS011;39116;59.332;18.034;2022-10-04T12:51:56;1.83;;;1.00;;
10823;SDS011;39116;59.332;18.034;2022-10-04T12:54:29;1.73;;;0.88;;
10823;SDS011;39116;59.332;18.034;2022-10-04T12:57:01;3.47;;;1.00;;
10823;SDS011;39116;59.332;18.034;2022-10-04T12:59:34;3.38;;;0.80;;
10823;SDS011;39116;59.332;18.034;2022-10-04T13:02:06;1.90;;;0.98;;
10823;SDS011;39116;59.332;18.034;2022-10-04T13:04:41;3.70;;;1.27;;
10823;SDS011;39116;59.332;18.034;2022-10-04T13:09:55;4.60;;;1.10;;
10823;SDS011;39116;59.332;18.034;2022-10-04T13:12:29;2.88;;;1.20;;
10823;SDS011;39116;59.332;18.034;2022-10-04T13:15:01;2.42;;;1.00;;
10823;SDS011;39116;59.332;18.034;2022-10-04T13:17:33;3.85;;;1.55;;
10823;SDS011;39116;59.332;18.034;2022-10-04T13:20:12;1.85;;;1.08;;
10823;SDS011;39116;59.332;18.034;2022-10-04T13:22:44;5.40;;;1.38;;
10823;SDS011;39116;59.332;18.034;2022-10-04T13:25:19;3.30;;;1.17;;
10823;SDS011;39116;59.332;18.034;2022-10-04T13:27:51;5.70;;;1.30;;
10823;SDS011;39116;59.332;18.034;2022-10-04T13:30:23;2.38;;;1.00;;
10823;SDS011;39116;59.332;18.034;2022-10-04T13:32:54;3.30;;;1.02;;
10823;SDS011;39116;59.332;18.034;2022-10-04T13:35:24;3.25;;;1.15;;
10823;SDS011;39116;59.332;18.034;2022-10-04T13:37:59;3.60;;;1.00;;
10823;SDS011;39116;59.332;18.034;2022-10-04T13:40:32;2.35;;;0.93;;
10823;SDS011;39116;59.332;18.034;2022-10-04T13:43:17;3.78;;;1.33;;
10823;SDS011;39116;59.332;18.034;2022-10-04T13:45:52;2.22;;;1.13;;
10823;SDS011;39116;59.332;18.034;2022-10-04T13:48:24;4.10;;;1.30;;
10823;SDS011;39116;59.332;18.034;2022-10-04T13:50:56;3.75;;;1.30;;
10823;SDS011;39116;59.332;18.034;2022-10-04T13:53:27;1.90;;;0.85;;
10823;SDS011;39116;59.332;18.034;2022-10-04T13:56:18;1.80;;;0.77;;
10823;SDS011;39116;59.332;18.034;2022-10-04T13:59:05;5.20;;;1.13;;
10823;SDS011;39116;59.332;18.034;2022-10-04T14:01:58;3.05;;;1.10;;
10823;SDS011;39116;59.332;18.034;2022-10-04T14:13:10;4.35;;;1.40;;
10823;SDS011;39116;59.332;18.034;2022-10-04T14:16:12;2.13;;;1.10;;
10823;SDS011;39116;59.332;18.034;2022-10-04T14:21:35;2.92;;;1.20;;
10823;SDS011;39116;59.332;18.034;2022-10-04T14:35:46;3.55;;;1.30;;
10823;SDS011;39116;59.332;18.034;2022-10-04T14:41:04;4.80;;;1.05;;
10823;SDS011;39116;59.332;18.034;2022-10-04T14:43:46;2.33;;;0.93;;
10823;SDS011;39116;59.332;18.034;2022-10-04T14:46:19;2.72;;;1.10;;
10823;SDS011;39116;59.332;18.034;2022-10-04T14:48:55;3.78;;;1.05;;
10823;SDS011;39116;59.332;18.034;2022-10-04T14:51:33;1.63;;;1.00;;
10823;SDS011;39116;59.332;18.034;2022-10-04T14:54:02;2.28;;;0.98;;
10823;SDS011;39116;59.332;18.034;2022-10-04T14:56:39;3.78;;;1.20;;
10823;SDS011;39116;59.332;18.034;2022-10-04T14:59:16;2.72;;;1.10;;
10823;SDS011;39116;59.332;18.034;2022-10-04T15:04:31;1.67;;;0.90;;
10823;SDS011;39116;59.332;18.034;2022-10-04T15:07:02;3.05;;;1.20;;
10823;SDS011;39116;59.332;18.034;2022-10-04T15:09:44;4.85;;;1.20;;
10823;SDS011;39116;59.332;18.034;2022-10-04T15:12:19;3.97;;;1.48;;
10823;SDS011;39116;59.332;18.034;2022-10-04T15:15:01;1.35;;;1.00;;
10823;SDS011;39116;59.332;18.034;2022-10-04T15:17:32;1.65;;;1.00;;
10823;SDS011;39116;59.332;18.034;2022-10-04T15:20:03;2.88;;;1.40;;
10823;SDS011;39116;59.332;18.034;2022-10-04T15:22:36;3.65;;;1.23;;
10823;SDS011;39116;59.332;18.034;2022-10-04T15:27:48;2.88;;;1.30;;
10823;SDS011;39116;59.332;18.034;2022-10-04T15:30:18;3.75;;;1.50;;
10823;SDS011;39116;59.332;18.034;2022-10-04T15:32:48;5.85;;;2.22;;
10823;SDS011;39116;59.332;18.034;2022-10-04T15:35:19;4.45;;;1.80;;
10823;SDS011;39116;59.332;18.034;2022-10-04T15:37:50;4.75;;;1.45;;
10823;SDS011;39116;59.332;18.034;2022-10-04T15:40:27;5.43;;;1.55;;
10823;SDS011;39116;59.332;18.034;2022-10-04T15:48:29;5.88;;;2.13;;
10823;SDS011;39116;59.332;18.034;2022-10-04T15:51:00;3.00;;;1.58;;
10823;SDS011;39116;59.332;18.034;2022-10-04T15:59:14;3.38;;;1.98;;
10823;SDS011;39116;59.332;18.034;2022-10-04T16:01:56;4.28;;;2.00;;
10823;SDS011;39116;59.332;18.034;2022-10-04T16:04:43;8.35;;;2.75;;
10823;SDS011;39116;59.332;18.034;2022-10-04T16:10:01;4.07;;;2.00;;
10823;SDS011;39116;59.332;18.034;2022-10-04T16:12:39;6.10;;;2.53;;
10823;SDS011;39116;59.332;18.034;2022-10-04T16:15:14;6.05;;;2.83;;
10823;SDS011;39116;59.332;18.034;2022-10-04T16:20:38;5.55;;;1.98;;
10823;SDS011;39116;59.332;18.034;2022-10-04T16:23:31;3.60;;;1.85;;
10823;SDS011;39116;59.332;18.034;2022-10-04T16:26:00;3.40;;;1.80;;
10823;SDS011;39116;59.332;18.034;2022-10-04T16:28:33;4.15;;;2.00;;
10823;SDS011;39116;59.332;18.034;2022-10-04T16:31:19;3.97;;;1.80;;
10823;SDS011;39116;59.332;18.034;2022-10-04T16:33:50;5.45;;;1.88;;
10823;SDS011;39116;59.332;18.034;2022-10-04T16:36:21;5.88;;;2.60;;
10823;SDS011;39116;59.332;18.034;2022-10-04T16:38:50;6.72;;;1.90;;
10823;SDS011;39116;59.332;18.034;2022-10-04T16:41:36;3.28;;;1.60;;
10823;SDS011;39116;59.332;18.034;2022-10-04T16:44:08;4.82;;;1.83;;
10823;SDS011;39116;59.332;18.034;2022-10-04T16:46:38;9.07;;;2.35;;
10823;SDS011;39116;59.332;18.034;2022-10-04T16:49:15;4.28;;;1.63;;
10823;SDS011;39116;59.332;18.034;2022-10-04T16:51:50;3.72;;;1.60;;
10823;SDS011;39116;59.332;18.034;2022-10-04T16:54:31;5.25;;;1.85;;
10823;SDS011;39116;59.332;18.034;2022-10-04T16:57:10;4.68;;;2.10;;
10823;SDS011;39116;59.332;18.034;2022-10-04T16:59:46;3.92;;;1.70;;
10823;SDS011;39116;59.332;18.034;2022-10-04T17:02:20;5.88;;;2.45;;
10823;SDS011;39116;59.332;18.034;2022-10-04T17:04:51;5.25;;;2.10;;
10823;SDS011;39116;59.332;18.034;2022-10-04T17:07:31;3.65;;;1.67;;
10823;SDS011;39116;59.332;18.034;2022-10-04T17:10:04;5.07;;;2.08;;
10823;SDS011;39116;59.332;18.034;2022-10-04T17:12:32;4.68;;;2.38;;
10823;SDS011;39116;59.332;18.034;2022-10-04T17:15:07;5.22;;;1.80;;
10823;SDS011;39116;59.332;18.034;2022-10-04T17:17:43;7.22;;;1.60;;